sensor_id;sensor_type;location;lat;lon;timestamp;P1;durP1;ratioP1;P2;durP2;ratioP2
43529;SDS011;55654;50.966;6.878;2023-02-15T09:33:17;37.23;;;18.00;;
43529;SDS011;55654;50.966;6.878;2023-02-15T09:35:45;30.90;;;17.60;;
43529;SDS011;55654;50.966;6.878;2023-02-15T09:38:11;31.43;;;17.40;;
43529;SDS011;55654;50.966;6.878;2023-02-15T09:40:38;28.47;;;16.67;;
43529;SDS011;55654;50.966;6.878;2023-02-15T09:43:10;28.47;;;17.40;;
43529;SDS011;55654;50.966;6.878;2023-02-15T09:48:29;28.03;;;17.13;;
43529;SDS011;55654;50.966;6.878;2023-02-15T09:51:17;30.13;;;17.90;;
43529;SDS011;55654;50.966;6.878;2023-02-15T09:59:17;30.43;;;18.87;;
43529;SDS011;55654;50.966;6.878;2023-02-15T10:11:57;29.00;;;17.08;;
43529;SDS011;55654;50.966;6.878;2023-02-15T10:27:07;26.70;;;16.27;;
43529;SDS011;55654;50.966;6.878;2023-02-15T10:29:36;27.50;;;16.37;;
43529;SDS011;55654;50.966;6.878;2023-02-15T10:45:47;27.07;;;16.27;;
43529;SDS011;55654;50.966;6.878;2023-02-15T11:06:39;27.87;;;15.90;;
43529;SDS011;55654;50.966;6.878;2023-02-15T11:09:12;24.70;;;15.53;;
43529;SDS011;55654;50.966;6.878;2023-02-15T11:11:40;26.15;;;14.52;;
43529;SDS011;55654;50.966;6.878;2023-02-15T11:14:16;21.53;;;14.93;;
43529;SDS011;55654;50.966;6.878;2023-02-15T11:16:45;25.50;;;15.53;;
43529;SDS011;55654;50.966;6.878;2023-02-15T11:19:19;32.00;;;19.43;;
43529;SDS011;55654;50.966;6.878;2023-02-15T11:21:53;30.57;;;17.87;;
43529;SDS011;55654;50.966;6.878;2023-02-15T11:24:20;26.47;;;15.83;;
43529;SDS011;55654;50.966;6.878;2023-02-15T11:26:49;32.30;;;17.63;;
43529;SDS011;55654;50.966;6.878;2023-02-15T11:31:53;28.17;;;17.60;;
43529;SDS011;55654;50.966;6.878;2023-02-15T11:34:23;28.47;;;16.90;;
43529;SDS011;55654;50.966;6.878;2023-02-15T11:39:19;26.63;;;16.47;;
43529;SDS011;55654;50.966;6.878;2023-02-15T11:41:50;29.00;;;17.80;;
43529;SDS011;55654;50.966;6.878;2023-02-15T11:46:45;26.87;;;16.77;;
43529;SDS011;55654;50.966;6.878;2023-02-15T11:51:53;24.93;;;15.70;;
43529;SDS011;55654;50.966;6.878;2023-02-15T11:54:21;24.47;;;16.40;;
43529;SDS011;55654;50.966;6.878;2023-02-15T11:56:48;26.63;;;15.67;;
43529;SDS011;55654;50.966;6.878;2023-02-15T11:59:17;20.60;;;13.93;;
43529;SDS011;55654;50.966;6.878;2023-02-15T12:01:44;26.13;;;14.00;;
43529;SDS011;55654;50.966;6.878;2023-02-15T12:06:38;26.97;;;15.93;;
43529;SDS011;55654;50.966;6.878;2023-02-15T12:09:40;25.47;;;14.50;;
43529;SDS011;55654;50.966;6.878;2023-02-15T12:14:46;23.27;;;15.07;;
43529;SDS011;55654;50.966;6.878;2023-02-15T12:17:13;26.07;;;15.10;;
43529;SDS011;55654;50.966;6.878;2023-02-15T12:19:39;25.20;;;14.67;;
43529;SDS011;55654;50.966;6.878;2023-02-15T12:24:52;24.30;;;14.87;;
43529;SDS011;55654;50.966;6.878;2023-02-15T12:27:29;22.90;;;14.87;;
43529;SDS011;55654;50.966;6.878;2023-02-15T12:30:00;23.37;;;14.90;;
43529;SDS011;55654;50.966;6.878;2023-02-15T12:32:31;22.63;;;14.63;;
43529;SDS011;55654;50.966;6.878;2023-02-15T12:35:00;24.13;;;14.57;;
43529;SDS011;55654;50.966;6.878;2023-02-15T12:37:28;21.77;;;14.77;;
43529;SDS011;55654;50.966;6.878;2023-02-15T12:40:10;20.90;;;13.60;;
43529;SDS011;55654;50.966;6.878;2023-02-15T12:42:44;23.67;;;14.47;;
43529;SDS011;55654;50.966;6.878;2023-02-15T12:45:21;23.80;;;15.50;;
43529;SDS011;55654;50.966;6.878;2023-02-15T12:47:47;23.23;;;14.33;;
43529;SDS011;55654;50.966;6.878;2023-02-15T12:50:33;21.37;;;14.30;;
43529;SDS011;55654;50.966;6.878;2023-02-15T12:53:06;22.63;;;13.97;;
43529;SDS011;55654;50.966;6.878;2023-02-15T12:55:33;25.60;;;14.97;;
43529;SDS011;55654;50.966;6.878;2023-02-15T12:58:13;23.73;;;15.17;;
43529;SDS011;55654;50.966;6.878;2023-02-15T13:00:43;21.17;;;14.07;;
43529;SDS011;55654;50.966;6.878;2023-02-15T13:03:15;21.60;;;13.27;;
43529;SDS011;55654;50.966;6.878;2023-02-15T13:05:43;20.67;;;14.05;;
43529;SDS011;55654;50.966;6.878;2023-02-15T13:10:51;21.73;;;13.90;;
43529;SDS011;55654;50.966;6.878;2023-02-15T13:13:19;21.63;;;13.97;;
43529;SDS011;55654;50.966;6.878;2023-02-15T13:15:49;20.40;;;13.17;;
43529;SDS011;55654;50.966;6.878;2023-02-15T13:18:17;25.80;;;14.30;;
43529;SDS011;55654;50.966;6.878;2023-02-15T13:20:46;22.07;;;12.73;;
43529;SDS011;55654;50.966;6.878;2023-02-15T13:23:20;25.60;;;13.77;;
43529;SDS011;55654;50.966;6.878;2023-02-15T13:25:50;21.77;;;13.77;;
43529;SDS011;55654;50.966;6.878;2023-02-15T13:28:20;23.63;;;14.77;;
43529;SDS011;55654;50.966;6.878;2023-02-15T13:30:48;21.37;;;14.30;;
43529;SDS011;55654;50.966;6.878;2023-02-15T13:48:52;19.53;;;12.80;;
43529;SDS011;55654;50.966;6.878;2023-02-15T13:51:37;19.27;;;14.03;;
43529;SDS011;55654;50.966;6.878;2023-02-15T14:22:17;19.13;;;13.48;;
43529;SDS011;55654;50.966;6.878;2023-02-15T14:30:14;16.52;;;10.75;;
43529;SDS011;55654;50.966;6.878;2023-02-15T14:32:42;17.95;;;11.88;;
43529;SDS011;55654;50.966;6.878;2023-02-15T14:35:14;15.93;;;11.15;;
43529;SDS011;55654;50.966;6.878;2023-02-15T14:43:31;18.30;;;10.88;;
43529;SDS011;55654;50.966;6.878;2023-02-15T14:46:20;21.75;;;11.25;;
43529;SDS011;55654;50.966;6.878;2023-02-15T14:51:10;18.50;;;10.75;;
43529;SDS011;55654;50.966;6.878;2023-02-15T14:53:38;21.98;;;13.52;;
43529;SDS011;55654;50.966;6.878;2023-02-15T14:58:57;15.82;;;10.95;;
43529;SDS011;55654;50.966;6.878;2023-02-15T15:01:29;20.02;;;11.90;;
43529;SDS011;55654;50.966;6.878;2023-02-15T15:04:09;27.23;;;12.63;;
43529;SDS011;55654;50.966;6.878;2023-02-15T15:06:37;21.88;;;12.00;;
43529;SDS011;55654;50.966;6.878;2023-02-15T15:09:18;20.15;;;13.15;;
43529;SDS011;55654;50.966;6.878;2023-02-15T15:11:51;19.33;;;12.23;;
43529;SDS011;55654;50.966;6.878;2023-02-15T15:17:00;19.70;;;12.57;;
43529;SDS011;55654;50.966;6.878;2023-02-15T15:22:17;19.97;;;12.83;;
43529;SDS011;55654;50.966;6.878;2023-02-15T15:29:54;22.00;;;14.67;;
43529;SDS011;55654;50.966;6.878;2023-02-15T15:32:21;20.80;;;13.60;;
43529;SDS011;55654;50.966;6.878;2023-02-15T15:34:58;19.57;;;13.60;;
43529;SDS011;55654;50.966;6.878;2023-02-15T15:45:08;22.73;;;14.35;;
43529;SDS011;55654;50.966;6.878;2023-02-15T15:50:13;22.73;;;13.67;;
43529;SDS011;55654;50.966;6.878;2023-02-15T15:52:40;24.77;;;14.43;;
43529;SDS011;55654;50.966;6.878;2023-02-15T15:55:14;21.67;;;15.27;;
43529;SDS011;55654;50.966;6.878;2023-02-15T15:57:41;21.07;;;14.27;;
43529;SDS011;55654;50.966;6.878;2023-02-15T16:02:50;22.07;;;14.23;;
43529;SDS011;55654;50.966;6.878;2023-02-15T16:05:16;21.23;;;15.33;;
43529;SDS011;55654;50.966;6.878;2023-02-15T16:07:42;22.37;;;14.63;;
43529;SDS011;55654;50.966;6.878;2023-02-15T16:10:20;22.00;;;13.27;;
43529;SDS011;55654;50.966;6.878;2023-02-15T16:12:46;24.80;;;15.43;;
43529;SDS011;55654;50.966;6.878;2023-02-15T16:15:14;27.97;;;15.33;;
43529;SDS011;55654;50.966;6.878;2023-02-15T16:17:43;29.47;;;14.97;;
43529;SDS011;55654;50.966;6.878;2023-02-15T16:20:21;22.33;;;15.30;;
43529;SDS011;55654;50.966;6.878;2023-02-15T16:22:48;24.73;;;15.60;;
43529;SDS011;55654;50.966;6.878;2023-02-15T16:25:24;24.53;;;14.70;;
43529;SDS011;55654;50.966;6.878;2023-02-15T16:27:53;21.73;;;16.10;;
43529;SDS011;55654;50.966;6.878;2023-02-15T16:32:45;25.93;;;15.40;;
43529;SDS011;55654;50.966;6.878;2023-02-15T16:35:15;24.63;;;16.00;;
43529;SDS011;55654;50.966;6.878;2023-02-15T16:37:41;30.40;;;16.47;;
43529;SDS011;55654;50.966;6.878;2023-02-15T16:42:50;27.47;;;16.83;;
43529;SDS011;55654;50.966;6.878;2023-02-15T16:45:17;25.73;;;15.80;;
43529;SDS011;55654;50.966;6.878;2023-02-15T16:47:46;29.00;;;18.13;;
43529;SDS011;55654;50.966;6.878;2023-02-15T16:50:20;23.83;;;16.03;;
43529;SDS011;55654;50.966;6.878;2023-02-15T16:52:46;33.23;;;15.07;;
43529;SDS011;55654;50.966;6.878;2023-02-15T16:55:20;27.13;;;16.30;;
43529;SDS011;55654;50.966;6.878;2023-02-15T16:57:47;25.93;;;15.67;;
43529;SDS011;55654;50.966;6.878;2023-02-15T17:00:20;28.33;;;17.30;;
43529;SDS011;55654;50.966;6.878;2023-02-15T17:02:55;28.60;;;15.90;;
43529;SDS011;55654;50.966;6.878;2023-02-15T17:05:23;27.77;;;17.07;;
43529;SDS011;55654;50.966;6.878;2023-02-15T17:07:51;24.03;;;15.73;;
43529;SDS011;55654;50.966;6.878;2023-02-15T17:10:25;27.90;;;17.07;;
43529;SDS011;55654;50.966;6.878;2023-02-15T17:12:52;27.53;;;16.13;;
43529;SDS011;55654;50.966;6.878;2023-02-15T17:17:51;23.33;;;16.03;;
43529;SDS011;55654;50.966;6.878;2023-02-15T17:20:18;28.90;;;17.10;;
43529;SDS011;55654;50.966;6.878;2023-02-15T17:22:44;30.27;;;16.57;;
43529;SDS011;55654;50.966;6.878;2023-02-15T17:25:18;26.50;;;15.93;;
43529;SDS011;55654;50.966;6.878;2023-02-15T17:27:49;25.47;;;15.93;;
43529;SDS011;55654;50.966;6.878;2023-02-15T17:30:17;28.40;;;17.67;;
43529;SDS011;55654;50.966;6.878;2023-02-15T17:32:57;23.87;;;16.00;;
43529;SDS011;55654;50.966;6.878;2023-02-15T17:35:24;27.07;;;16.30;;
43529;SDS011;55654;50.966;6.878;2023-02-15T17:40:34;28.50;;;17.30;;
43529;SDS011;55654;50.966;6.878;2023-02-15T17:43:01;28.00;;;17.67;;
43529;SDS011;55654;50.966;6.878;2023-02-15T17:45:31;25.13;;;16.30;;
43529;SDS011;55654;50.966;6.878;2023-02-15T17:47:58;32.33;;;20.03;;
43529;SDS011;55654;50.966;6.878;2023-02-15T17:50:26;29.83;;;18.60;;
43529;SDS011;55654;50.966;6.878;2023-02-15T17:52:53;27.37;;;16.50;;
43529;SDS011;55654;50.966;6.878;2023-02-15T17:55:20;28.07;;;16.43;;
43529;SDS011;55654;50.966;6.878;2023-02-15T18:00:34;25.37;;;16.23;;
43529;SDS011;55654;50.966;6.878;2023-02-15T18:03:20;28.20;;;16.80;;
43529;SDS011;55654;50.966;6.878;2023-02-15T18:06:05;29.73;;;17.37;;
43529;SDS011;55654;50.966;6.878;2023-02-15T18:08:50;24.30;;;16.47;;
43529;SDS011;55654;50.966;6.878;2023-02-15T18:11:34;26.07;;;16.23;;
43529;SDS011;55654;50.966;6.878;2023-02-15T18:14:04;27.07;;;17.43;;
43529;SDS011;55654;50.966;6.878;2023-02-15T18:16:35;28.13;;;17.50;;
43529;SDS011;55654;50.966;6.878;2023-02-15T18:19:12;26.50;;;17.07;;
43529;SDS011;55654;50.966;6.878;2023-02-15T18:21:39;31.10;;;17.70;;
43529;SDS011;55654;50.966;6.878;2023-02-15T18:24:07;35.33;;;21.37;;
43529;SDS011;55654;50.966;6.878;2023-02-15T18:26:34;29.37;;;18.03;;
43529;SDS011;55654;50.966;6.878;2023-02-15T18:29:00;32.60;;;19.57;;
43529;SDS011;55654;50.966;6.878;2023-02-15T18:31:26;28.80;;;16.67;;
43529;SDS011;55654;50.966;6.878;2023-02-15T18:33:53;31.30;;;17.30;;
43529;SDS011;55654;50.966;6.878;2023-02-15T18:36:21;26.60;;;16.83;;
43529;SDS011;55654;50.966;6.878;2023-02-15T18:38:47;25.43;;;16.03;;
43529;SDS011;55654;50.966;6.878;2023-02-15T18:41:14;28.17;;;16.73;;
43529;SDS011;55654;50.966;6.878;2023-02-15T18:43:44;28.03;;;15.77;;
43529;SDS011;55654;50.966;6.878;2023-02-15T18:46:12;25.63;;;16.87;;
43529;SDS011;55654;50.966;6.878;2023-02-15T18:48:38;27.17;;;16.93;;
43529;SDS011;55654;50.966;6.878;2023-02-15T18:51:12;28.50;;;16.93;;
43529;SDS011;55654;50.966;6.878;2023-02-15T18:53:44;31.80;;;17.13;;
43529;SDS011;55654;50.966;6.878;2023-02-15T18:56:14;32.97;;;19.27;;
43529;SDS011;55654;50.966;6.878;2023-02-15T18:58:44;34.80;;;20.03;;
43529;SDS011;55654;50.966;6.878;2023-02-15T19:01:18;34.93;;;19.80;;
43529;SDS011;55654;50.966;6.878;2023-02-15T19:03:48;37.20;;;20.77;;
43529;SDS011;55654;50.966;6.878;2023-02-15T19:06:15;35.23;;;20.57;;
43529;SDS011;55654;50.966;6.878;2023-02-15T19:08:48;29.70;;;18.77;;
43529;SDS011;55654;50.966;6.878;2023-02-15T19:11:16;37.90;;;20.33;;
43529;SDS011;55654;50.966;6.878;2023-02-15T19:13:47;30.15;;;18.25;;
43529;SDS011;55654;50.966;6.878;2023-02-15T19:16:34;30.97;;;18.83;;
43529;SDS011;55654;50.966;6.878;2023-02-15T19:18:59;29.43;;;18.13;;
43529;SDS011;55654;50.966;6.878;2023-02-15T19:21:26;31.47;;;19.60;;
43529;SDS011;55654;50.966;6.878;2023-02-15T19:23:56;31.47;;;18.50;;
43529;SDS011;55654;50.966;6.878;2023-02-15T19:26:24;33.93;;;19.23;;
43529;SDS011;55654;50.966;6.878;2023-02-15T19:28:50;31.87;;;18.97;;
43529;SDS011;55654;50.966;6.878;2023-02-15T19:31:16;26.83;;;17.80;;
43529;SDS011;55654;50.966;6.878;2023-02-15T19:33:43;36.37;;;20.27;;
43529;SDS011;55654;50.966;6.878;2023-02-15T19:36:14;33.30;;;20.43;;
43529;SDS011;55654;50.966;6.878;2023-02-15T19:38:50;34.03;;;20.77;;
43529;SDS011;55654;50.966;6.878;2023-02-15T19:41:31;33.73;;;20.97;;
43529;SDS011;55654;50.966;6.878;2023-02-15T19:43:57;37.97;;;22.00;;
43529;SDS011;55654;50.966;6.878;2023-02-15T19:46:23;35.33;;;20.57;;
43529;SDS011;55654;50.966;6.878;2023-02-15T19:48:52;34.80;;;20.37;;
43529;SDS011;55654;50.966;6.878;2023-02-15T19:51:19;29.30;;;18.53;;
43529;SDS011;55654;50.966;6.878;2023-02-15T19:53:46;35.67;;;18.37;;
43529;SDS011;55654;50.966;6.878;2023-02-15T19:56:15;35.33;;;21.43;;
43529;SDS011;55654;50.966;6.878;2023-02-15T19:58:42;33.03;;;22.03;;
43529;SDS011;55654;50.966;6.878;2023-02-15T20:01:08;36.60;;;21.17;;
43529;SDS011;55654;50.966;6.878;2023-02-15T20:03:37;33.37;;;19.33;;
43529;SDS011;55654;50.966;6.878;2023-02-15T20:06:03;36.97;;;19.47;;
43529;SDS011;55654;50.966;6.878;2023-02-15T20:08:29;32.00;;;19.50;;
43529;SDS011;55654;50.966;6.878;2023-02-15T20:10:58;28.43;;;19.43;;
43529;SDS011;55654;50.966;6.878;2023-02-15T20:13:24;29.43;;;19.23;;
43529;SDS011;55654;50.966;6.878;2023-02-15T20:15:52;29.30;;;18.53;;
43529;SDS011;55654;50.966;6.878;2023-02-15T20:18:18;31.03;;;19.47;;
43529;SDS011;55654;50.966;6.878;2023-02-15T20:23:15;34.73;;;20.10;;
43529;SDS011;55654;50.966;6.878;2023-02-15T20:25:44;28.23;;;18.03;;
43529;SDS011;55654;50.966;6.878;2023-02-15T20:28:18;33.40;;;20.33;;
43529;SDS011;55654;50.966;6.878;2023-02-15T20:30:47;27.27;;;17.97;;
43529;SDS011;55654;50.966;6.878;2023-02-15T20:33:14;34.07;;;19.57;;
43529;SDS011;55654;50.966;6.878;2023-02-15T20:35:42;30.20;;;17.90;;
43529;SDS011;55654;50.966;6.878;2023-02-15T20:40:53;34.80;;;19.40;;
43529;SDS011;55654;50.966;6.878;2023-02-15T20:43:39;34.30;;;19.23;;
43529;SDS011;55654;50.966;6.878;2023-02-15T20:46:12;31.63;;;19.33;;
43529;SDS011;55654;50.966;6.878;2023-02-15T20:48:39;31.33;;;19.77;;
43529;SDS011;55654;50.966;6.878;2023-02-15T20:51:05;35.07;;;20.70;;
43529;SDS011;55654;50.966;6.878;2023-02-15T20:53:33;32.97;;;20.43;;
43529;SDS011;55654;50.966;6.878;2023-02-15T20:55:59;29.57;;;19.50;;
43529;SDS011;55654;50.966;6.878;2023-02-15T20:58:26;32.07;;;19.83;;
43529;SDS011;55654;50.966;6.878;2023-02-15T21:00:53;37.00;;;23.20;;
43529;SDS011;55654;50.966;6.878;2023-02-15T21:03:20;32.50;;;19.70;;
43529;SDS011;55654;50.966;6.878;2023-02-15T21:05:48;37.27;;;21.33;;
43529;SDS011;55654;50.966;6.878;2023-02-15T21:08:15;39.30;;;21.67;;
43529;SDS011;55654;50.966;6.878;2023-02-15T21:10:41;34.67;;;20.90;;
43529;SDS011;55654;50.966;6.878;2023-02-15T21:13:19;33.93;;;20.03;;
43529;SDS011;55654;50.966;6.878;2023-02-15T21:15:48;38.10;;;20.63;;
43529;SDS011;55654;50.966;6.878;2023-02-15T21:18:19;34.30;;;19.87;;
43529;SDS011;55654;50.966;6.878;2023-02-15T21:20:47;37.13;;;20.90;;
43529;SDS011;55654;50.966;6.878;2023-02-15T21:23:17;33.80;;;19.77;;
43529;SDS011;55654;50.966;6.878;2023-02-15T21:25:44;32.20;;;20.87;;
43529;SDS011;55654;50.966;6.878;2023-02-15T21:28:17;33.37;;;20.07;;
43529;SDS011;55654;50.966;6.878;2023-02-15T21:30:44;39.67;;;22.47;;
43529;SDS011;55654;50.966;6.878;2023-02-15T21:33:10;37.93;;;21.97;;
43529;SDS011;55654;50.966;6.878;2023-02-15T21:35:36;36.57;;;22.33;;
43529;SDS011;55654;50.966;6.878;2023-02-15T21:38:02;40.47;;;22.67;;
43529;SDS011;55654;50.966;6.878;2023-02-15T21:40:29;37.60;;;21.03;;
43529;SDS011;55654;50.966;6.878;2023-02-15T21:42:56;37.00;;;21.97;;
43529;SDS011;55654;50.966;6.878;2023-02-15T21:45:41;37.67;;;22.03;;
43529;SDS011;55654;50.966;6.878;2023-02-15T21:48:25;41.93;;;23.80;;
43529;SDS011;55654;50.966;6.878;2023-02-15T21:50:51;34.77;;;21.57;;
43529;SDS011;55654;50.966;6.878;2023-02-15T21:53:41;39.43;;;22.73;;
43529;SDS011;55654;50.966;6.878;2023-02-15T21:56:17;41.67;;;23.33;;
43529;SDS011;55654;50.966;6.878;2023-02-15T21:58:43;36.90;;;22.23;;
43529;SDS011;55654;50.966;6.878;2023-02-15T22:01:15;39.07;;;21.70;;
43529;SDS011;55654;50.966;6.878;2023-02-15T22:03:44;36.70;;;23.17;;
43529;SDS011;55654;50.966;6.878;2023-02-15T22:06:12;39.13;;;23.13;;
43529;SDS011;55654;50.966;6.878;2023-02-15T22:08:38;42.03;;;24.20;;
43529;SDS011;55654;50.966;6.878;2023-02-15T22:11:09;43.40;;;23.83;;
43529;SDS011;55654;50.966;6.878;2023-02-15T22:13:36;42.42;;;24.17;;
43529;SDS011;55654;50.966;6.878;2023-02-15T22:16:02;43.13;;;25.40;;
43529;SDS011;55654;50.966;6.878;2023-02-15T22:18:30;40.63;;;23.63;;
43529;SDS011;55654;50.966;6.878;2023-02-15T22:20:59;42.30;;;24.13;;
43529;SDS011;55654;50.966;6.878;2023-02-15T22:23:25;44.83;;;25.30;;
43529;SDS011;55654;50.966;6.878;2023-02-15T22:25:52;41.73;;;24.60;;
43529;SDS011;55654;50.966;6.878;2023-02-15T22:28:19;45.33;;;25.27;;
43529;SDS011;55654;50.966;6.878;2023-02-15T22:30:46;43.43;;;25.53;;
43529;SDS011;55654;50.966;6.878;2023-02-15T22:33:22;43.33;;;24.77;;
43529;SDS011;55654;50.966;6.878;2023-02-15T22:35:49;44.17;;;26.27;;
43529;SDS011;55654;50.966;6.878;2023-02-15T22:38:15;39.33;;;23.37;;
43529;SDS011;55654;50.966;6.878;2023-02-15T22:40:41;44.67;;;25.73;;
43529;SDS011;55654;50.966;6.878;2023-02-15T22:43:09;47.57;;;25.30;;
43529;SDS011;55654;50.966;6.878;2023-02-15T22:45:37;46.50;;;26.43;;
43529;SDS011;55654;50.966;6.878;2023-02-15T22:48:04;49.33;;;28.50;;
43529;SDS011;55654;50.966;6.878;2023-02-15T22:50:31;45.47;;;26.73;;
43529;SDS011;55654;50.966;6.878;2023-02-15T22:53:00;49.97;;;26.27;;
43529;SDS011;55654;50.966;6.878;2023-02-15T22:55:28;47.10;;;26.30;;
43529;SDS011;55654;50.966;6.878;2023-02-15T22:57:55;44.77;;;26.13;;
43529;SDS011;55654;50.966;6.878;2023-02-15T23:00:26;48.47;;;24.93;;
43529;SDS011;55654;50.966;6.878;2023-02-15T23:02:54;44.25;;;25.80;;
43529;SDS011;55654;50.966;6.878;2023-02-15T23:05:25;44.43;;;26.07;;
43529;SDS011;55654;50.966;6.878;2023-02-15T23:07:51;47.57;;;26.27;;
43529;SDS011;55654;50.966;6.878;2023-02-15T23:10:18;47.80;;;26.90;;
43529;SDS011;55654;50.966;6.878;2023-02-15T23:12:55;45.60;;;25.43;;
43529;SDS011;55654;50.966;6.878;2023-02-15T23:15:41;49.53;;;26.30;;
43529;SDS011;55654;50.966;6.878;2023-02-15T23:20:36;47.53;;;25.80;;
43529;SDS011;55654;50.966;6.878;2023-02-15T23:23:07;48.73;;;26.67;;
43529;SDS011;55654;50.966;6.878;2023-02-15T23:25:33;49.00;;;24.87;;
43529;SDS011;55654;50.966;6.878;2023-02-15T23:27:59;48.37;;;27.40;;
43529;SDS011;55654;50.966;6.878;2023-02-15T23:30:25;44.87;;;26.10;;
43529;SDS011;55654;50.966;6.878;2023-02-15T23:32:51;45.93;;;25.97;;
43529;SDS011;55654;50.966;6.878;2023-02-15T23:35:19;48.73;;;26.27;;
43529;SDS011;55654;50.966;6.878;2023-02-15T23:37:45;46.07;;;26.10;;
43529;SDS011;55654;50.966;6.878;2023-02-15T23:42:59;45.83;;;25.97;;
43529;SDS011;55654;50.966;6.878;2023-02-15T23:45:25;50.03;;;28.33;;
43529;SDS011;55654;50.966;6.878;2023-02-15T23:47:51;49.27;;;26.67;;
43529;SDS011;55654;50.966;6.878;2023-02-15T23:50:36;46.33;;;27.83;;
43529;SDS011;55654;50.966;6.878;2023-02-15T23:53:02;57.87;;;29.40;;
43529;SDS011;55654;50.966;6.878;2023-02-15T23:55:32;52.43;;;27.63;;
43529;SDS011;55654;50.966;6.878;2023-02-15T23:58:02;51.90;;;27.77;;
